Time;durP1;ratioP1;P1;durP2;ratioP2;P2;SDS_P1;SDS_P2;PMS_P1;PMS_P2;Temp;Humidity;BMP_temperature;BMP_pressure;BME280_temperature;BME280_humidity;BME280_pressure;Samples;Min_cycle;Max_cycle;Signal;HPM_P1;HPM_P2
2022/05/06 00:01:44;;;;;;;25.98;23.25;;;;;;;13.30;100.00;100147.28;5113095;28;20036;-73
2022/05/06 00:04:10;;;;;;;25.00;22.42;;;;;;;13.32;100.00;100148.06;5113788;27;20500;-72
2022/05/06 00:06:36;;;;;;;24.30;21.65;;;;;;;13.33;100.00;100136.66;5113879;28;20490;-73
2022/05/06 00:09:06;;;;;;;23.92;21.38;;;;;;;13.39;100.00;100145.03;5114156;28;20019;-73
2022/05/06 00:11:33;;;;;;;23.58;21.17;;;;;;;13.43;100.00;100145.72;5113974;27;20110;-73
2022/05/06 00:13:58;;;;;;;26.33;21.77;;;;;;;13.35;100.00;100140.03;5113927;28;20107;-72
2022/05/06 00:16:25;;;;;;;23.35;21.13;;;;;;;13.43;100.00;100146.56;5113941;28;20032;-73
2022/05/06 00:18:52;;;;;;;26.00;23.25;;;;;;;13.51;100.00;100146.19;5114168;28;20123;-72
2022/05/06 00:21:18;;;;;;;25.75;21.77;;;;;;;13.44;100.00;100150.91;5114008;28;20032;-73
2022/05/06 00:23:44;;;;;;;25.25;22.65;;;;;;;13.41;100.00;100140.59;5113640;28;20026;-72
2022/05/06 00:26:09;;;;;;;28.13;25.25;;;;;;;13.39;100.00;100146.81;5113858;27;20115;-72
2022/05/06 00:28:36;;;;;;;27.67;24.73;;;;;;;13.34;100.00;100143.59;5113359;28;20023;-72
2022/05/06 00:31:03;;;;;;;26.63;23.77;;;;;;;13.32;100.00;100142.84;5113936;28;20106;-72
2022/05/06 00:33:29;;;;;;;26.98;24.30;;;;;;;13.22;100.00;100134.53;5113578;28;20036;-72
2022/05/06 00:35:57;;;;;;;26.88;24.13;;;;;;;13.21;100.00;100146.78;5113687;28;20059;-72
2022/05/06 00:38:23;;;;;;;26.15;23.02;;;;;;;13.25;100.00;100157.97;5113628;28;20031;-72
2022/05/06 00:40:48;;;;;;;26.83;24.02;;;;;;;13.17;100.00;100145.22;5113552;28;20023;-72
2022/05/06 00:43:14;;;;;;;26.00;23.30;;;;;;;13.18;100.00;100146.06;5113375;28;20035;-72
2022/05/06 00:45:49;;;;;;;28.58;25.67;;;;;;;13.19;100.00;100151.25;5113352;28;20472;-72
2022/05/06 00:48:15;;;;;;;26.85;24.25;;;;;;;13.07;100.00;100137.94;5113148;27;20044;-72
2022/05/06 00:50:45;;;;;;;28.35;24.55;;;;;;;12.94;100.00;100124.63;5113135;28;20031;-72
2022/05/06 00:53:12;;;;;;;26.83;23.98;;;;;;;12.99;100.00;100139.16;5113363;28;20020;-72
2022/05/06 00:55:38;;;;;;;30.08;26.98;;;;;;;12.96;100.00;100144.53;5113007;28;20464;-72
2022/05/06 00:58:03;;;;;;;29.67;26.67;;;;;;;12.99;100.00;100157.44;5113469;28;20031;-72
2022/05/06 01:00:29;;;;;;;29.77;25.98;;;;;;;12.95;100.00;100157.69;5113225;28;20051;-73
2022/05/06 01:02:55;;;;;;;28.90;25.88;;;;;;;12.85;100.00;100144.22;5113226;28;20050;-72
2022/05/06 01:05:22;;;;;;;29.00;25.95;;;;;;;12.85;100.00;100151.19;5113004;28;20019;-73
2022/05/06 01:07:49;;;;;;;29.95;26.70;;;;;;;12.86;100.00;100161.56;5112973;28;20031;-73
2022/05/06 01:10:17;;;;;;;30.02;26.92;;;;;;;12.81;100.00;100154.84;5112805;27;20059;-72
2022/05/06 01:12:42;;;;;;;31.08;27.77;;;;;;;12.65;100.00;100149.53;5112812;28;20038;-72
2022/05/06 01:15:26;;;;;;;31.65;28.35;;;;;;;12.62;100.00;100153.13;5112496;28;20027;-72
2022/05/06 01:17:53;;;;;;;32.47;29.02;;;;;;;12.53;100.00;100147.50;5112601;28;20032;-73
2022/05/06 01:20:21;;;;;;;31.23;28.13;;;;;;;12.58;100.00;100162.03;5112858;28;20095;-72
2022/05/06 01:22:49;;;;;;;32.47;29.10;;;;;;;12.49;100.00;100154.63;5112395;28;20032;-72
2022/05/06 01:25:15;;;;;;;31.65;28.45;;;;;;;12.46;100.00;100159.97;5112854;28;20053;-72
2022/05/06 01:28:04;;;;;;;33.10;29.67;;;;;;;12.56;100.00;100178.72;5112488;28;20472;-72
2022/05/06 01:30:36;;;;;;;35.28;31.67;;;;;;;12.44;100.00;100154.84;5112421;28;20024;-72
2022/05/06 01:33:04;;;;;;;35.70;31.20;;;;;;;12.40;100.00;100152.44;5112499;28;20023;-72
2022/05/06 01:35:32;;;;;;;32.28;28.88;;;;;;;12.36;100.00;100163.94;5112551;28;20031;-72
2022/05/06 01:38:04;;;;;;;35.10;31.35;;;;;;;12.24;100.00;100165.34;5112509;28;20396;-73
2022/05/06 01:40:34;;;;;;;36.58;32.80;;;;;;;12.14;100.00;100145.78;5112346;28;20024;-72
2022/05/06 01:43:01;;;;;;;33.55;30.23;;;;;;;12.14;100.00;100166.69;5112465;28;20106;-72
2022/05/06 01:45:29;;;;;;;36.28;32.33;;;;;;;12.06;100.00;100160.97;5112018;28;20602;-72
2022/05/06 01:47:55;;;;;;;37.45;30.73;;;;;;;12.10;100.00;100175.56;5112203;28;20337;-73
2022/05/06 01:50:21;;;;;;;35.03;31.23;;;;;;;12.05;100.00;100177.50;5112476;28;20015;-72
2022/05/06 01:52:51;;;;;;;36.53;31.17;;;;;;;11.98;100.00;100166.50;5112165;28;20034;-72
2022/05/06 01:55:17;;;;;;;36.65;32.90;;;;;;;11.85;100.00;100160.13;5112290;28;20026;-72
2022/05/06 01:57:44;;;;;;;40.95;32.22;;;;;;;11.85;100.00;100175.81;5112048;28;20028;-72
2022/05/06 02:00:12;;;;;;;35.38;31.52;;;;;;;11.78;100.00;100177.78;5112197;28;20110;-72
2022/05/06 02:02:37;;;;;;;36.20;32.33;;;;;;;11.62;100.00;100169.75;5112143;28;20504;-72
2022/05/06 02:05:18;;;;;;;35.40;31.80;;;;;;;11.64;100.00;100182.75;5112152;28;20103;-72
2022/05/06 02:07:48;;;;;;;;;;;;;;;11.57;100.00;100178.69;5112645;28;20027;-72
2022/05/06 02:10:14;;;;;;;34.75;31.20;;;;;;;11.41;100.00;100165.44;5112161;28;19915;-72
2022/05/06 02:12:40;;;;;;;34.15;30.48;;;;;;;11.35;100.00;100163.94;5111790;28;20020;-72
2022/05/06 02:15:07;;;;;;;34.53;30.83;;;;;;;11.36;100.00;100183.91;5112258;28;20034;-72
2022/05/06 02:17:32;;;;;;;35.30;31.35;;;;;;;11.35;100.00;100183.97;5111927;28;20028;-72
2022/05/06 02:19:57;;;;;;;37.00;33.13;;;;;;;11.23;100.00;100178.34;5112077;28;20027;-72
2022/05/06 02:22:27;;;;;;;34.22;30.17;;;;;;;11.19;100.00;100173.31;5112049;28;20353;-72
2022/05/06 02:24:53;;;;;;;36.28;32.38;;;;;;;11.22;100.00;100192.28;5111950;28;20093;-72
2022/05/06 02:27:18;;;;;;;36.83;32.80;;;;;;;11.11;100.00;100177.97;5112813;28;20035;-72
2022/05/06 02:33:12;;;;;;;38.30;34.30;;;;;;;11.13;100.00;100197.88;5115910;28;20024;-72
2022/05/06 02:35:13;;;;;;;38.95;33.65;;;;;;;11.03;100.00;100190.47;5115933;28;20054;-72
2022/05/06 02:37:38;;;;;;;37.67;33.60;;;;;;;10.91;100.00;100171.81;5115450;28;20051;-72
2022/05/06 02:40:04;;;;;;;38.10;34.00;;;;;;;10.89;100.00;100178.00;5116022;28;20110;-72
2022/05/06 02:42:30;;;;;;;36.60;32.28;;;;;;;10.87;100.00;100182.41;5115678;27;20077;-72
2022/05/06 02:44:55;;;;;;;41.75;35.53;;;;;;;10.89;100.00;100186.66;5115776;28;20020;-72
2022/05/06 02:47:20;;;;;;;37.60;33.65;;;;;;;10.85;100.00;100190.28;5115406;28;20476;-72
2022/05/06 02:49:46;;;;;;;39.35;35.20;;;;;;;10.80;100.00;100187.03;5115385;28;20023;-73
2022/05/06 02:52:11;;;;;;;38.95;34.83;;;;;;;10.79;100.00;100192.28;5115565;28;20032;-73
2022/05/06 02:54:37;;;;;;;41.08;36.53;;;;;;;10.74;100.00;100182.91;5115207;28;20016;-73
2022/05/06 02:57:03;;;;;;;41.70;37.20;;;;;;;10.63;100.00;100168.59;5115470;28;20035;-73
2022/05/06 02:59:31;;;;;;;41.10;36.03;;;;;;;10.64;100.00;100181.56;5115594;27;20161;-72
2022/05/06 03:01:57;;;;;;;40.85;36.60;;;;;;;10.57;100.00;100181.84;5115385;28;20487;-72
2022/05/06 03:04:22;;;;;;;42.17;37.60;;;;;;;10.64;100.00;100196.34;5115354;27;20028;-72
2022/05/06 03:06:47;;;;;;;40.40;36.20;;;;;;;10.57;100.00;100193.09;5114991;28;20380;-72
2022/05/06 03:09:13;;;;;;;40.42;36.03;;;;;;;10.55;100.00;100191.47;5115419;28;20024;-72
2022/05/06 03:11:38;;;;;;;39.45;34.15;;;;;;;10.54;100.00;100195.00;5115122;28;20024;-72
2022/05/06 03:14:04;;;;;;;39.33;34.78;;;;;;;10.53;100.00;100199.34;5115060;28;20027;-73
2022/05/06 03:16:29;;;;;;;38.85;34.75;;;;;;;10.54;100.00;100211.47;5115231;28;20024;-72
2022/05/06 03:18:54;;;;;;;39.45;35.17;;;;;;;10.58;100.00;100215.66;5115162;28;20063;-72
2022/05/06 03:21:20;;;;;;;38.50;34.60;;;;;;;10.57;100.00;100220.91;5115197;28;20638;-72
2022/05/06 03:23:52;;;;;;;40.63;36.38;;;;;;;10.57;100.00;100221.75;5114730;28;20016;-72
2022/05/06 03:26:18;;;;;;;43.10;37.03;;;;;;;10.53;100.00;100214.97;5115099;28;20027;-72
2022/05/06 03:28:44;;;;;;;39.90;35.65;;;;;;;10.52;100.00;100226.28;5114797;28;20073;-72
2022/05/06 03:31:12;;;;;;;40.13;34.95;;;;;;;10.43;100.00;100213.63;5114952;28;20380;-72
2022/05/06 03:33:38;;;;;;;41.42;36.60;;;;;;;10.37;100.00;100204.28;5114611;27;20015;-73
2022/05/06 03:36:04;;;;;;;39.58;34.70;;;;;;;10.38;100.00;100211.19;5114718;28;20040;-72
2022/05/06 03:38:29;;;;;;;39.55;35.35;;;;;;;10.34;100.00;100211.34;5114150;28;20024;-72
2022/05/06 03:40:55;;;;;;;39.45;35.28;;;;;;;10.33;100.00;100215.72;5114247;28;20031;-72
2022/05/06 03:43:21;;;;;;;39.35;35.22;;;;;;;10.36;100.00;100225.16;5114781;28;20524;-72
2022/05/06 03:45:46;;;;;;;40.40;35.72;;;;;;;10.24;100.00;100214.31;5114379;28;20110;-72
2022/05/06 03:48:12;;;;;;;36.75;32.85;;;;;;;10.38;100.00;100242.44;5114290;28;20040;-72
2022/05/06 03:53:23;;;;;;;39.42;34.10;;;;;;;10.45;100.00;100253.50;5114472;28;20038;-72
2022/05/06 03:55:49;;;;;;;41.05;35.78;;;;;;;10.43;100.00;100240.50;5114223;28;20102;-73
2022/05/06 03:58:14;;;;;;;40.30;36.05;;;;;;;10.56;100.00;100258.28;5114448;28;20110;-72
2022/05/06 04:00:40;;;;;;;41.65;35.80;;;;;;;10.57;100.00;100257.38;5114017;28;20080;-72
2022/05/06 04:03:05;;;;;;;38.47;34.28;;;;;;;10.60;100.00;100250.31;5114184;28;20034;-72
2022/05/06 04:05:33;;;;;;;38.28;34.03;;;;;;;10.65;100.00;100255.34;5114408;28;20027;-72
2022/05/06 04:07:59;;;;;;;39.17;35.13;;;;;;;10.73;100.00;100261.97;5114111;28;20160;-72
2022/05/06 04:10:24;;;;;;;39.20;35.05;;;;;;;10.81;100.00;100279.06;5114288;28;20118;-73
2022/05/06 04:12:50;;;;;;;36.10;32.22;;;;;;;10.79;100.00;100270.44;5113919;28;20596;-72
2022/05/06 04:15:15;;;;;;;36.85;32.92;;;;;;;10.91;100.00;100275.19;5112669;28;20035;-72
2022/05/06 04:17:41;;;;;;;35.03;31.33;;;;;;;10.92;100.00;100272.56;5113655;28;20028;-72
2022/05/06 04:25:34;;;;;;;30.75;27.50;;;;;;;11.10;100.00;100278.81;5113825;28;20039;-72
2022/05/06 04:28:00;;;;;;;30.88;27.52;;;;;;;11.27;100.00;100280.75;5113780;28;20384;-72
2022/05/06 04:30:25;;;;;;;30.05;25.70;;;;;;;11.44;100.00;100282.69;5114018;28;20032;-73
2022/05/06 04:32:50;;;;;;;30.13;26.20;;;;;;;11.41;100.00;100275.00;5113709;28;20118;-72
2022/05/06 04:35:16;;;;;;;28.90;25.77;;;;;;;11.49;100.00;100288.56;5113538;28;20526;-72
2022/05/06 04:37:42;;;;;;;31.08;25.40;;;;;;;11.44;100.00;100282.69;5113341;28;20031;-72
2022/05/06 04:40:08;;;;;;;28.38;24.80;;;;;;;11.34;100.00;100282.22;5113528;27;20030;-72
2022/05/06 04:42:33;;;;;;;27.98;24.98;;;;;;;11.36;100.00;100289.97;5113560;28;20028;-73
2022/05/06 04:44:59;;;;;;;27.25;23.50;;;;;;;11.33;100.00;100288.31;5113458;28;20028;-72
2022/05/06 04:47:25;;;;;;;27.42;23.85;;;;;;;11.45;100.00;100290.44;5113467;28;20047;-72
2022/05/06 04:49:50;;;;;;;26.33;22.65;;;;;;;11.64;100.00;100300.16;5113115;28;20030;-72
2022/05/06 04:52:15;;;;;;;26.48;23.70;;;;;;;11.67;100.00;100300.03;5112062;28;20058;-73
2022/05/06 04:54:41;;;;;;;26.52;21.27;;;;;;;11.62;100.00;100300.22;5113107;27;20023;-72
2022/05/06 04:57:06;;;;;;;25.27;22.67;;;;;;;11.58;100.00;100305.63;5113262;28;20396;-72
2022/05/06 04:59:32;;;;;;;23.85;21.33;;;;;;;11.60;100.00;100314.25;5090239;28;20059;-72
2022/05/06 05:01:57;;;;;;;23.40;21.05;;;;;;;11.59;100.00;100320.38;5090180;28;20074;-72
2022/05/06 05:04:27;;;;;;;24.55;20.52;;;;;;;11.60;100.00;100320.31;5090341;28;20551;-72
2022/05/06 05:06:54;;;;;;;22.97;19.10;;;;;;;11.58;100.00;100319.50;5090199;28;20680;-72
2022/05/06 05:09:20;;;;;;;22.27;19.92;;;;;;;11.57;100.00;100311.75;5090312;28;20032;-72
2022/05/06 05:11:45;;;;;;;23.55;20.08;;;;;;;11.58;100.00;100316.91;5089866;28;20502;-72
2022/05/06 05:14:11;;;;;;;23.00;20.17;;;;;;;11.63;100.00;100317.59;5090175;28;20032;-72
2022/05/06 05:16:36;;;;;;;20.85;18.65;;;;;;;11.64;100.00;100319.28;5090137;28;20584;-72
2022/05/06 05:19:01;;;;;;;21.90;18.95;;;;;;;11.64;100.00;100316.66;5089816;28;20097;-72
2022/05/06 05:21:27;;;;;;;22.05;17.00;;;;;;;11.73;100.00;100316.28;5090116;28;20539;-72
2022/05/06 05:23:52;;;;;;;20.17;18.00;;;;;;;11.79;100.00;100317.78;5089785;28;20059;-72
2022/05/06 05:26:17;;;;;;;22.73;18.02;;;;;;;11.86;100.00;100311.44;5089927;28;20435;-72
2022/05/06 05:28:43;;;;;;;20.70;17.38;;;;;;;11.97;100.00;100327.53;5072722;28;20046;-72
2022/05/06 05:31:08;;;;;;;18.35;16.38;;;;;;;11.98;100.00;100308.34;5089776;28;20040;-73
2022/05/06 05:33:33;;;;;;;22.20;17.13;;;;;;;12.09;100.00;100310.47;5089814;28;20422;-72
2022/05/06 05:35:59;;;;;;;19.65;17.45;;;;;;;12.16;100.00;100322.38;5091621;28;20024;-72
2022/05/06 05:38:24;;;;;;;20.15;16.58;;;;;;;12.22;100.00;100322.13;5112367;28;20118;-72
2022/05/06 05:40:50;;;;;;;17.77;15.27;;;;;;;12.30;100.00;100328.75;5112379;28;20073;-73
2022/05/06 05:48:43;;;;;;;19.45;15.02;;;;;;;12.14;100.00;100326.81;5112225;28;20051;-73
2022/05/06 05:51:09;;;;;;;20.30;15.60;;;;;;;12.28;100.00;100328.84;5112436;28;20019;-72
2022/05/06 05:53:34;;;;;;;19.15;15.00;;;;;;;12.37;100.00;100332.81;5112615;28;20067;-73
2022/05/06 05:55:59;;;;;;;15.27;13.68;;;;;;;12.47;100.00;100329.75;5112340;28;20497;-72
2022/05/06 05:58:26;;;;;;;17.02;14.55;;;;;;;12.42;100.00;100321.25;5112375;28;20024;-72
2022/05/06 06:00:51;;;;;;;20.92;14.15;;;;;;;12.50;100.00;100352.28;5112293;28;20020;-73
2022/05/06 06:03:16;;;;;;;22.13;14.07;;;;;;;12.43;100.00;100338.63;5111819;28;20028;-73
2022/05/06 06:05:42;;;;;;;14.95;11.52;;;;;;;12.54;100.00;100342.53;5111883;28;20088;-72
2022/05/06 06:08:07;;;;;;;13.75;12.05;;;;;;;12.54;100.00;100351.22;5112197;28;20394;-73
2022/05/06 06:10:33;;;;;;;15.98;11.52;;;;;;;12.55;99.79;100357.28;5112666;28;20059;-72
2022/05/06 06:13:01;;;;;;;14.43;11.57;;;;;;;12.54;100.00;100346.00;5112080;28;20452;-73
2022/05/06 06:15:26;;;;;;;17.00;11.38;;;;;;;12.73;100.00;100361.72;5112219;28;20031;-72
2022/05/06 06:17:52;;;;;;;20.20;12.00;;;;;;;12.90;100.00;100361.81;5110739;28;20365;-72
2022/05/06 06:20:17;;;;;;;16.60;13.20;;;;;;;13.11;99.64;100364.41;5112116;28;20016;-73
2022/05/06 06:22:42;;;;;;;16.92;10.90;;;;;;;13.29;98.68;100365.34;5111817;28;20027;-72
2022/05/06 06:25:08;;;;;;;18.90;12.25;;;;;;;13.29;97.31;100373.19;5112189;28;20050;-72
2022/05/06 06:27:34;;;;;;;17.48;12.95;;;;;;;13.23;97.84;100369.06;5112077;28;20027;-72
2022/05/06 06:29:59;;;;;;;16.13;11.48;;;;;;;13.19;96.60;100362.28;5111956;28;20036;-73
2022/05/06 06:32:25;;;;;;;17.63;12.30;;;;;;;13.20;96.73;100363.97;5112061;28;20024;-72
2022/05/06 06:34:52;;;;;;;17.98;11.93;;;;;;;13.32;96.07;100379.13;5111829;28;20450;-72
2022/05/06 06:37:19;;;;;;;18.30;12.48;;;;;;;13.29;95.72;100384.50;5111825;28;20058;-72
2022/05/06 06:39:45;;;;;;;15.40;12.25;;;;;;;13.24;95.85;100368.19;5111397;28;20403;-73
2022/05/06 06:42:10;;;;;;;13.43;11.77;;;;;;;13.19;95.70;100370.97;5111832;28;20034;-72
2022/05/06 06:44:36;;;;;;;12.90;10.63;;;;;;;13.26;95.00;100374.16;5111956;28;20023;-73
2022/05/06 06:47:07;;;;;;;19.55;11.85;;;;;;;13.42;94.02;100380.38;5111597;28;20047;-73
2022/05/06 06:49:33;;;;;;;16.98;12.07;;;;;;;13.60;93.16;100378.66;5112210;28;20111;-72
2022/05/06 06:51:58;;;;;;;16.13;12.07;;;;;;;13.93;92.73;100391.06;5111868;28;20447;-73
2022/05/06 06:54:24;;;;;;;14.00;11.27;;;;;;;14.35;89.87;100387.25;5112136;28;20030;-73
2022/05/06 06:56:49;;;;;;;14.13;10.88;;;;;;;14.87;88.67;100382.81;5112062;28;20105;-72
2022/05/06 06:59:14;;;;;;;13.73;10.38;;;;;;;15.74;84.27;100379.03;5111740;28;20030;-72
2022/05/06 07:01:40;;;;;;;14.35;10.48;;;;;;;16.69;80.51;100385.69;5111813;28;20027;-74
2022/05/06 07:04:05;;;;;;;16.80;10.07;;;;;;;18.07;75.12;100378.81;5111444;28;20051;-74
2022/05/06 07:11:59;;;;;;;12.20;7.88;;;;;;;25.96;41.16;100380.94;5111440;28;20419;-71
2022/05/06 07:14:28;;;;;;;14.52;7.75;;;;;;;27.39;37.22;100381.38;5112620;28;20023;-72
2022/05/06 07:16:54;;;;;;;8.43;6.75;;;;;;;28.21;33.49;100368.94;5113234;28;20028;-72
2022/05/06 07:19:20;;;;;;;11.82;7.63;;;;;;;28.84;32.17;100372.72;5114290;28;20076;-74
2022/05/06 07:21:46;;;;;;;10.15;6.85;;;;;;;29.05;29.93;100370.34;5113923;28;20097;-71
2022/05/06 07:24:11;;;;;;;12.07;7.25;;;;;;;28.55;30.29;100382.19;5113857;28;20034;-72
2022/05/06 07:26:36;;;;;;;12.40;7.63;;;;;;;29.12;30.41;100381.22;5113223;28;20023;-72
2022/05/06 07:29:02;;;;;;;8.90;7.07;;;;;;;30.00;29.27;100380.91;5114668;28;20511;-72
2022/05/06 07:31:28;;;;;;;9.95;6.25;;;;;;;31.37;26.98;100381.53;5114866;28;20114;-72
2022/05/06 07:33:54;;;;;;;10.63;6.22;;;;;;;32.59;24.71;100370.69;5113768;28;20027;-72
2022/05/06 07:36:19;;;;;;;12.63;6.65;;;;;;;33.19;23.89;100376.44;5113695;28;20047;-72
2022/05/06 07:38:45;;;;;;;8.25;5.68;;;;;;;33.06;23.47;100374.50;5110411;28;20024;-72
2022/05/06 07:41:10;;;;;;;10.05;5.60;;;;;;;33.23;23.68;100385.78;5114308;28;20055;-72
2022/05/06 07:43:36;;;;;;;7.15;5.63;;;;;;;32.99;23.50;100381.72;5114777;28;20019;-72
2022/05/06 07:46:02;;;;;;;12.90;5.88;;;;;;;33.07;23.29;100367.25;5114325;28;20024;-72
2022/05/06 07:48:27;;;;;;;10.07;5.95;;;;;;;34.27;22.21;100374.63;5114827;28;20524;-72
2022/05/06 07:50:52;;;;;;;19.55;7.72;;;;;;;34.35;21.42;100387.09;5114597;28;20020;-72
2022/05/06 07:53:19;;;;;;;12.60;7.97;;;;;;;33.37;22.86;100381.28;5114378;28;20032;-72
2022/05/06 07:55:45;;;;;;;29.30;18.77;;;;;;;34.97;21.29;100366.78;5114551;28;20110;-72
2022/05/06 07:58:12;;;;;;;13.55;8.90;;;;;;;36.09;20.15;100375.44;5114434;28;20599;-72
2022/05/06 08:00:37;;;;;;;32.20;26.65;;;;;;;36.35;19.55;100372.47;5114337;28;20089;-72
2022/05/06 08:05:49;;;;;;;12.98;8.43;;;;;;;36.30;18.96;100375.03;5114444;28;20063;-73
2022/05/06 08:08:14;;;;;;;9.55;5.32;;;;;;;36.11;18.17;100363.28;5114488;28;20468;-73
2022/05/06 08:10:40;;;;;;;9.65;5.75;;;;;;;34.20;20.21;100380.03;5114355;28;20088;-73
2022/05/06 08:13:06;;;;;;;10.40;5.80;;;;;;;34.04;20.90;100374.19;5113900;28;20393;-73
2022/05/06 08:15:32;;;;;;;9.45;6.43;;;;;;;33.74;20.69;100377.25;5114278;28;20065;-73
2022/05/06 08:17:57;;;;;;;8.32;5.90;;;;;;;32.62;21.84;100364.91;5113792;28;20027;-72
2022/05/06 08:20:23;;;;;;;14.88;6.45;;;;;;;31.52;23.20;100378.78;5113760;28;20051;-72
2022/05/06 08:22:48;;;;;;;8.90;5.90;;;;;;;29.72;25.88;100374.38;5112976;28;20020;-72
2022/05/06 08:25:14;;;;;;;11.52;6.25;;;;;;;26.84;28.35;100376.41;5110771;28;20472;-72
2022/05/06 08:27:42;;;;;;;14.20;7.25;;;;;;;24.65;32.52;100382.00;5113593;28;20465;-72
2022/05/06 08:30:09;;;;;;;10.77;7.18;;;;;;;23.20;36.21;100379.19;5113690;28;20121;-72
2022/05/06 08:32:35;;;;;;;12.73;6.50;;;;;;;22.12;38.85;100366.25;5113906;28;20055;-72
2022/05/06 08:35:00;;;;;;;10.02;6.57;;;;;;;21.87;40.27;100378.06;5113411;28;20592;-72
2022/05/06 08:37:26;;;;;;;10.30;6.15;;;;;;;21.79;41.35;100389.28;5113718;28;20460;-72
2022/05/06 08:39:52;;;;;;;13.05;6.43;;;;;;;21.40;41.14;100388.88;5113179;28;20024;-72
2022/05/06 08:42:21;;;;;;;11.93;6.45;;;;;;;21.12;41.28;100365.53;5113377;28;20024;-72
2022/05/06 08:50:52;;;;;;;6.50;4.32;;;;;;;21.02;39.89;100372.50;5050380;28;20037;-72
2022/05/06 08:53:17;;;;;;;8.98;4.47;;;;;;;20.93;38.70;100395.25;5050393;28;20033;-72
2022/05/06 08:55:43;;;;;;;8.60;4.97;;;;;;;20.92;39.85;100386.47;5050181;28;20045;-72
2022/05/06 08:58:09;;;;;;;8.65;5.35;;;;;;;20.27;40.06;100399.41;5049875;28;20520;-72
2022/05/06 09:00:34;;;;;;;7.82;5.50;;;;;;;19.82;41.23;100386.88;5067964;28;20032;-71
2022/05/06 09:02:59;;;;;;;11.40;6.60;;;;;;;19.41;42.40;100392.47;5069768;28;20386;-71
2022/05/06 09:05:25;;;;;;;11.93;6.70;;;;;;;19.16;44.09;100401.28;5070054;28;20054;-72
2022/05/06 09:08:05;;;;;;;12.80;6.55;;;;;;;19.00;45.50;100398.03;5069789;28;20540;-72
2022/05/06 09:10:30;;;;;;;7.75;5.47;;;;;;;19.22;46.43;100394.75;5069983;28;20040;-72
2022/05/06 09:12:59;;;;;;;10.80;5.07;;;;;;;19.28;45.33;100387.22;5069940;28;20408;-72
2022/05/06 09:18:17;;;;;;;6.63;4.75;;;;;;;19.67;44.44;100399.41;5069716;28;20049;-72
2022/05/06 09:20:42;;;;;;;7.63;5.20;;;;;;;19.77;43.33;100402.22;5079967;28;20484;-72
2022/05/06 09:23:25;;;;;;;8.00;5.13;;;;;;;19.87;44.59;100402.41;5112689;28;20035;-73
2022/05/06 09:25:52;;;;;;;7.82;5.18;;;;;;;19.76;42.56;100397.03;5112425;28;20678;-73
2022/05/06 09:28:32;;;;;;;8.00;4.90;;;;;;;19.24;43.55;100396.31;5112938;28;20031;-72
2022/05/06 09:31:08;;;;;;;5.68;4.10;;;;;;;19.33;45.45;100393.03;5112585;28;20026;-72
2022/05/06 09:33:36;;;;;;;8.32;4.53;;;;;;;19.59;45.96;100399.09;5112649;28;20080;-72
2022/05/06 09:36:24;;;;;;;8.68;4.97;;;;;;;19.53;44.89;100396.03;5112313;28;20024;-72
2022/05/06 09:39:10;;;;;;;8.75;4.90;;;;;;;19.44;44.16;100392.25;5112299;28;20031;-72
2022/05/06 09:41:40;;;;;;;6.95;4.55;;;;;;;19.33;44.70;100398.31;5112653;28;20050;-72
2022/05/06 09:44:08;;;;;;;8.45;5.40;;;;;;;18.96;45.53;100384.19;5112330;28;20464;-72
2022/05/06 09:46:33;;;;;;;12.15;6.15;;;;;;;18.76;46.46;100377.69;5112436;28;20023;-72
2022/05/06 09:49:00;;;;;;;7.75;4.70;;;;;;;18.92;48.29;100375.69;5112151;28;20042;-72
2022/05/06 09:51:33;;;;;;;7.88;4.75;;;;;;;19.25;47.90;100387.44;5112549;28;20062;-72
2022/05/06 09:54:00;;;;;;;6.90;4.07;;;;;;;19.21;46.14;100388.59;5112339;28;20031;-72
2022/05/06 09:56:26;;;;;;;9.43;5.82;;;;;;;19.23;44.52;100384.06;5112410;28;20023;-72
2022/05/06 09:58:53;;;;;;;8.90;4.47;;;;;;;19.10;45.56;100393.81;5112282;28;20027;-72
2022/05/06 10:01:19;;;;;;;7.22;3.95;;;;;;;19.06;46.72;100390.53;5112199;28;20465;-72
2022/05/06 10:03:45;;;;;;;8.00;4.82;;;;;;;19.30;47.91;100374.78;5112527;28;20068;-73
2022/05/06 10:06:10;;;;;;;6.97;4.60;;;;;;;19.27;45.62;100374.97;5110101;28;20023;-74
2022/05/06 10:08:38;;;;;;;8.35;4.35;;;;;;;19.43;46.36;100383.50;5091835;28;20103;-73
2022/05/06 10:11:15;;;;;;;7.55;4.75;;;;;;;19.58;47.27;100368.31;5091568;28;20089;-73
2022/05/06 10:13:44;;;;;;;6.22;4.43;;;;;;;19.66;44.43;100381.00;5091830;28;20031;-74
2022/05/06 10:16:10;;;;;;;7.60;4.47;;;;;;;19.39;44.56;100373.28;5108476;28;20031;-73
2022/05/06 10:18:43;;;;;;;8.55;4.22;;;;;;;19.54;44.87;100384.50;5106953;28;20034;-74
2022/05/06 10:21:10;;;;;;;6.22;3.65;;;;;;;19.40;42.60;100381.06;5111962;28;20035;-73
2022/05/06 10:23:55;;;;;;;10.35;4.32;;;;;;;19.48;43.26;100380.53;5112209;28;20080;-72
2022/05/06 10:26:33;;;;;;;7.65;4.60;;;;;;;19.25;42.82;100371.59;5111967;28;20507;-72
2022/05/06 10:34:30;;;;;;;5.57;4.18;;;;;;;19.16;44.62;100373.09;5112273;28;20035;-72
2022/05/06 10:36:58;;;;;;;8.63;4.90;;;;;;;19.15;43.47;100381.13;5111180;28;20115;-72
2022/05/06 10:39:33;;;;;;;6.63;4.43;;;;;;;19.05;43.82;100380.09;5112004;28;20036;-72
2022/05/06 10:42:06;;;;;;;9.50;4.50;;;;;;;18.88;43.42;100376.00;5111789;28;20118;-72
2022/05/06 10:44:44;;;;;;;7.45;4.35;;;;;;;18.77;44.53;100367.97;5111912;28;20375;-73
2022/05/06 10:47:12;;;;;;;8.15;4.00;;;;;;;18.64;43.71;100375.84;5111404;28;20473;-72
2022/05/06 10:49:37;;;;;;;5.97;4.25;;;;;;;18.67;43.60;100373.03;5115267;28;20034;-72
2022/05/06 10:52:19;;;;;;;10.70;4.40;;;;;;;18.60;43.87;100377.03;5115731;28;20118;-72
2022/05/06 10:54:48;;;;;;;6.07;3.50;;;;;;;18.56;41.51;100376.38;5115014;28;20035;-72
2022/05/06 10:57:18;;;;;;;6.82;3.53;;;;;;;18.69;43.20;100377.25;5115080;28;20077;-73
2022/05/06 10:59:50;;;;;;;7.40;3.80;;;;;;;18.83;41.75;100384.22;5115127;28;20038;-72
2022/05/06 11:02:16;;;;;;;9.13;4.20;;;;;;;18.47;42.38;100355.91;5113040;28;20035;-72
2022/05/06 11:05:05;;;;;;;7.10;5.18;;;;;;;18.18;42.93;100369.25;5115253;28;20032;-72
2022/05/06 11:07:33;;;;;;;5.85;3.97;;;;;;;18.14;42.11;100361.66;5115436;28;20019;-72
2022/05/06 11:09:59;;;;;;;5.13;3.83;;;;;;;18.17;42.48;100361.47;5115288;28;20019;-73
2022/05/06 11:12:59;;;;;;;5.07;4.03;;;;;;;18.33;44.72;100354.22;5115345;28;20028;-72
2022/05/06 11:15:27;;;;;;;;;;;;;;;18.61;45.92;100355.78;5032792;28;20056;-72
2022/05/06 11:17:56;;;;;;;6.38;3.95;;;;;;;18.82;45.15;100350.84;5032642;28;19949;-72
2022/05/06 11:20:27;;;;;;;5.68;4.25;;;;;;;18.80;43.05;100341.38;5031903;28;20041;-72
2022/05/06 11:23:03;;;;;;;11.00;4.25;;;;;;;18.59;41.45;100336.59;5032152;28;20025;-72
2022/05/06 11:25:33;;;;;;;7.18;4.65;;;;;;;18.40;42.08;100347.56;5032172;28;20061;-72
2022/05/06 11:28:02;;;;;;;4.72;3.65;;;;;;;18.28;41.93;100334.34;5031857;28;20068;-72
2022/05/06 11:30:29;;;;;;;11.35;4.28;;;;;;;18.39;42.48;100345.88;5032108;28;20033;-72
2022/05/06 11:33:02;;;;;;;8.32;4.55;;;;;;;18.32;43.12;100343.75;5031980;28;20408;-72
2022/05/06 11:35:30;;;;;;;5.75;4.47;;;;;;;18.18;44.85;100353.44;5031891;28;20176;-72
2022/05/06 11:37:55;;;;;;;11.43;4.45;;;;;;;18.22;45.15;100337.44;5031777;28;20522;-72
2022/05/06 11:40:39;;;;;;;8.57;3.83;;;;;;;18.33;43.96;100324.34;5031723;28;20030;-72
2022/05/06 11:43:21;;;;;;;6.70;3.90;;;;;;;18.35;44.08;100323.28;5031818;28;20605;-72
2022/05/06 11:48:45;;;;;;;5.90;3.92;;;;;;;18.40;44.79;100323.81;5031702;28;20135;-72
2022/05/06 11:51:13;;;;;;;6.40;3.75;;;;;;;18.34;45.51;100320.78;5054472;28;20046;-72
2022/05/06 11:53:40;;;;;;;6.68;3.88;;;;;;;18.45;45.80;100319.06;5114547;28;20123;-72